createdAt,value
2018-02-21T00:05:05.417Z,25.70
2018-02-21T00:10:35.364Z,28.73
2018-02-21T00:16:04.308Z,27.37
2018-02-21T00:21:32.481Z,26.90
2018-02-21T00:27:00.647Z,26.47
2018-02-21T00:32:29.598Z,28.47
2018-02-21T00:37:57.762Z,26.53
2018-02-21T00:43:27.153Z,28.90
2018-02-21T00:48:56.070Z,28.50
2018-02-21T00:54:24.223Z,25.77
2018-02-21T00:59:52.379Z,25.30
2018-02-21T01:05:20.539Z,27.23
2018-02-21T01:10:49.465Z,27.33
2018-02-21T01:16:17.611Z,27.20
2018-02-21T01:21:45.763Z,25.63
2018-02-21T01:27:14.693Z,27.70
2018-02-21T01:32:42.836Z,23.73
2018-02-21T01:38:10.984Z,26.80
2018-02-21T01:43:39.195Z,25.47
2018-02-21T01:49:07.337Z,24.10
2018-02-21T01:54:36.306Z,26.00
2018-02-21T02:00:04.453Z,25.50
2018-02-21T02:05:32.612Z,26.00
2018-02-21T02:11:01.573Z,27.70
2018-02-21T02:16:29.718Z,29.27
2018-02-21T02:21:57.881Z,30.00
2018-02-21T02:27:26.816Z,28.33
2018-02-21T02:32:55.735Z,30.70
2018-02-21T02:38:39.620Z,30.67
2018-02-21T02:44:07.797Z,28.00
2018-02-21T02:49:35.952Z,32.63
2018-02-21T02:55:04.110Z,32.20
2018-02-21T03:00:33.057Z,34.40
2018-02-21T03:06:02.110Z,33.87
2018-02-21T03:11:30.286Z,33.93
2018-02-21T03:16:58.443Z,31.50
2018-02-21T03:22:26.801Z,31.93
2018-02-21T03:27:54.962Z,32.50
2018-02-21T03:33:23.129Z,31.30
2018-02-21T03:38:51.283Z,31.60
2018-02-21T03:44:21.377Z,28.80
2018-02-21T03:49:50.278Z,30.60
2018-02-21T03:55:18.433Z,30.53
2018-02-21T04:00:47.343Z,30.20
2018-02-21T04:06:15.621Z,32.97
2018-02-21T04:11:43.766Z,30.60
2018-02-21T04:17:11.911Z,31.00
2018-02-21T04:22:40.085Z,30.37
2018-02-21T04:28:08.393Z,28.20
2018-02-21T04:33:37.289Z,28.67
2018-02-21T04:39:05.444Z,28.87
2018-02-21T04:44:34.362Z,27.10
2018-02-21T04:50:02.548Z,27.67
2018-02-21T04:55:33.398Z,28.63
2018-02-21T05:01:01.553Z,24.90
2018-02-21T05:06:29.709Z,24.90
2018-02-21T05:11:57.883Z,24.07
2018-02-21T05:17:26.137Z,25.00
2018-02-21T05:22:55.170Z,24.57
2018-02-21T05:28:23.322Z,23.50
2018-02-21T05:33:52.230Z,24.87
2018-02-21T05:39:20.438Z,24.87
2018-02-21T05:44:48.614Z,24.27
2018-02-21T05:50:17.546Z,22.63
2018-02-21T05:55:45.932Z,23.77
2018-02-21T06:01:14.106Z,22.80
2018-02-21T06:06:43.055Z,24.27
2018-02-21T06:12:11.225Z,23.37
2018-02-21T06:17:39.374Z,26.90
2018-02-21T06:23:07.522Z,30.20
2018-02-21T06:28:35.677Z,28.47
2018-02-21T06:34:03.925Z,34.33
2018-02-21T06:39:32.070Z,29.93
2018-02-21T06:45:00.247Z,32.27
2018-02-21T06:50:28.415Z,30.73
2018-02-21T06:55:56.553Z,28.97
2018-02-21T07:01:24.745Z,28.40
2018-02-21T07:06:53.658Z,31.63
2018-02-21T07:12:21.812Z,27.87
2018-02-21T07:17:49.966Z,29.30
2018-02-21T07:23:18.114Z,30.50
2018-02-21T07:28:46.271Z,26.70
2018-02-21T07:34:14.446Z,30.07
2018-02-21T07:39:42.589Z,29.30
2018-02-21T07:45:10.776Z,29.13
2018-02-21T07:50:38.915Z,28.13
2018-02-21T07:56:07.079Z,29.83
2018-02-21T08:01:35.315Z,25.40
2018-02-21T08:07:03.510Z,29.10
2018-02-21T08:12:32.466Z,28.00
2018-02-21T08:18:00.652Z,29.10
2018-02-21T08:23:29.690Z,26.03
2018-02-21T08:28:57.943Z,29.83
2018-02-21T08:34:26.008Z,30.37
2018-02-21T08:39:54.149Z,28.27
2018-02-21T08:45:22.300Z,28.20
2018-02-21T08:50:50.443Z,31.13
2018-02-21T08:56:18.588Z,30.03
2018-02-21T09:01:46.732Z,27.80
2018-02-21T09:07:14.905Z,28.60
2018-02-21T09:12:43.150Z,30.50
2018-02-21T09:18:11.372Z,28.73
2018-02-21T09:23:39.536Z,28.83
2018-02-21T09:29:07.718Z,28.83
2018-02-21T09:34:35.877Z,31.17
2018-02-21T09:40:04.033Z,26.93
2018-02-21T09:45:32.200Z,26.60
2018-02-21T09:51:01.133Z,27.90
2018-02-21T09:56:30.086Z,30.07
2018-02-21T10:01:59.029Z,29.60
2018-02-21T10:07:27.197Z,29.10
2018-02-21T10:12:56.086Z,30.37
2018-02-21T10:18:24.218Z,30.23
2018-02-21T10:23:52.355Z,30.93
2018-02-21T10:29:20.532Z,29.97
2018-02-21T10:34:49.435Z,32.30
2018-02-21T10:40:17.575Z,30.80
2018-02-21T10:45:46.466Z,30.57
2018-02-21T10:51:14.634Z,30.70
2018-02-21T10:56:42.787Z,30.03
2018-02-21T11:02:10.915Z,27.03
2018-02-21T11:07:39.060Z,29.00
2018-02-21T11:13:07.212Z,31.50
2018-02-21T11:18:36.148Z,29.90
2018-02-21T11:24:04.427Z,30.47
2018-02-21T11:29:32.586Z,28.20
2018-02-21T11:35:00.715Z,32.60
2018-02-21T11:40:29.636Z,31.57
2018-02-21T11:45:57.770Z,31.37
2018-02-21T11:51:26.678Z,31.90
2018-02-21T11:56:54.820Z,32.90
2018-02-21T12:02:23.007Z,33.97
2018-02-21T12:07:51.145Z,35.93
2018-02-21T12:13:19.312Z,33.70
2018-02-21T12:18:47.432Z,35.77
2018-02-21T12:24:15.680Z,34.97
2018-02-21T12:29:43.899Z,32.97
2018-02-21T12:35:12.054Z,31.10
2018-02-21T12:40:45.913Z,36.77
2018-02-21T12:46:14.057Z,32.83
2018-02-21T12:51:42.198Z,34.77
2018-02-21T12:57:10.345Z,31.90
2018-02-21T13:02:38.521Z,32.83
2018-02-21T13:08:06.772Z,32.47
2018-02-21T13:13:34.920Z,28.07
2018-02-21T13:19:03.066Z,31.23
2018-02-21T13:24:31.964Z,33.87
2018-02-21T13:30:00.112Z,32.47
2018-02-21T13:35:29.067Z,31.27
2018-02-21T13:40:58.108Z,32.97
2018-02-21T13:46:26.565Z,34.27
2018-02-21T13:51:54.706Z,33.37
2018-02-21T13:57:22.946Z,35.50
2018-02-21T14:02:51.093Z,34.70
2018-02-21T14:08:20.004Z,34.83
2018-02-21T14:13:48.142Z,34.80
2018-02-21T14:19:17.034Z,34.87
2018-02-21T14:24:45.178Z,32.47
2018-02-21T14:30:13.454Z,32.80
2018-02-21T14:35:41.651Z,33.03
2018-02-21T14:41:10.551Z,34.73
2018-02-21T14:46:38.771Z,33.60
2018-02-21T14:52:06.906Z,33.30
2018-02-21T14:57:35.845Z,33.93
2018-02-21T15:03:03.982Z,32.00
2018-02-21T15:08:34.011Z,33.70
2018-02-21T15:14:02.134Z,32.40
2018-02-21T15:19:30.325Z,35.17
2018-02-21T15:24:58.470Z,30.97
2018-02-21T15:30:26.674Z,33.60
2018-02-21T15:35:54.910Z,31.00
2018-02-21T15:41:23.111Z,33.30
2018-02-21T15:46:51.961Z,35.67
2018-02-21T15:52:20.100Z,31.27
2018-02-21T15:57:48.250Z,32.97
2018-02-21T16:03:16.377Z,34.83
2018-02-21T16:08:44.518Z,32.77
2018-02-21T16:14:12.723Z,33.67
2018-02-21T16:19:40.878Z,36.03
2018-02-21T16:25:09.031Z,32.90
2018-02-21T16:30:37.962Z,31.27
2018-02-21T16:36:06.094Z,35.13
2018-02-21T16:41:35.029Z,32.40
2018-02-21T16:47:04.284Z,33.90
2018-02-21T16:52:33.206Z,30.17
2018-02-21T16:58:01.331Z,33.30
2018-02-21T17:03:30.276Z,31.10
2018-02-21T17:08:59.214Z,33.63
2018-02-21T17:14:28.172Z,31.70
2018-02-21T17:19:56.349Z,29.03
2018-02-21T17:25:25.516Z,30.37
2018-02-21T17:30:54.445Z,33.83
2018-02-21T17:36:23.384Z,29.87
2018-02-21T17:41:52.315Z,29.53
2018-02-21T17:47:20.448Z,30.40
2018-02-21T17:52:49.347Z,29.27
2018-02-21T17:58:17.494Z,29.23
2018-02-21T18:03:46.408Z,28.43
2018-02-21T18:09:14.573Z,30.10
2018-02-21T18:14:42.727Z,30.20
2018-02-21T18:20:10.857Z,26.47
2018-02-21T18:25:39.007Z,30.17
2018-02-21T18:31:07.914Z,31.17
2018-02-21T18:36:36.066Z,30.60
2018-02-21T18:42:05.067Z,31.70
2018-02-21T18:47:33.229Z,28.83
2018-02-21T18:53:02.171Z,28.40
2018-02-21T18:58:31.245Z,29.97
2018-02-21T19:03:59.389Z,30.10
2018-02-21T19:09:27.562Z,29.07
2018-02-21T19:14:55.702Z,30.53
2018-02-21T19:20:23.860Z,33.13
2018-02-21T19:25:52.016Z,34.30
2018-02-21T19:31:20.927Z,32.63
2018-02-21T19:36:49.075Z,32.00
2018-02-21T19:42:18.028Z,32.40
2018-02-21T19:47:46.189Z,32.80
2018-02-21T19:53:14.497Z,33.70
2018-02-21T19:58:44.455Z,33.40
2018-02-21T20:04:12.639Z,33.50
2018-02-21T20:09:41.997Z,31.43
2018-02-21T20:15:10.141Z,33.43
2018-02-21T20:20:38.401Z,32.10
2018-02-21T20:26:06.552Z,32.67
2018-02-21T20:31:34.705Z,32.60
2018-02-21T20:37:02.910Z,31.80
2018-02-21T20:42:31.397Z,35.23
2018-02-21T20:48:00.327Z,32.03
2018-02-21T20:53:28.481Z,34.70
2018-02-21T20:58:56.645Z,34.43
2018-02-21T21:04:24.789Z,33.30
2018-02-21T21:09:53.604Z,33.07
2018-02-21T21:15:21.787Z,34.50
2018-02-21T21:20:49.943Z,33.77
2018-02-21T21:26:18.290Z,35.20
2018-02-21T21:31:47.295Z,33.90
2018-02-21T21:37:15.478Z,34.20
2018-02-21T21:42:44.875Z,33.93
2018-02-21T21:48:13.036Z,33.77
2018-02-21T21:53:41.237Z,31.47
2018-02-21T21:59:09.394Z,31.50
2018-02-21T22:04:37.544Z,30.40
2018-02-21T22:10:05.715Z,29.70
2018-02-21T22:15:34.720Z,30.50
2018-02-21T22:21:03.019Z,31.13
2018-02-21T22:26:31.198Z,44.70
2018-02-21T22:31:59.367Z,35.67
2018-02-21T22:37:27.513Z,29.97
2018-02-21T22:42:55.658Z,30.70
2018-02-21T22:48:24.723Z,33.00
2018-02-21T22:53:53.664Z,28.10
2018-02-21T22:59:22.662Z,32.60
2018-02-21T23:04:50.829Z,33.70
2018-02-21T23:10:19.757Z,31.00
2018-02-21T23:15:48.665Z,32.67
2018-02-21T23:21:16.838Z,31.17
2018-02-21T23:26:44.974Z,28.30
2018-02-21T23:32:13.915Z,31.73
2018-02-21T23:37:42.050Z,31.43
2018-02-21T23:43:10.211Z,31.03
2018-02-21T23:48:39.136Z,34.07
2018-02-21T23:54:07.481Z,31.53
2018-02-21T23:59:36.417Z,32.00
